sensor_id;sensor_type;location;lat;lon;timestamp;temperature;humidity
47022;DHT22;32779;52.264;6.154;2022-12-04T00:01:57;0.30;99.90
47022;DHT22;32779;52.264;6.154;2022-12-04T00:04:22;0.30;99.90
47022;DHT22;32779;52.264;6.154;2022-12-04T00:06:48;0.30;99.90
47022;DHT22;32779;52.264;6.154;2022-12-04T00:09:14;0.30;99.90
47022;DHT22;32779;52.264;6.154;2022-12-04T00:11:39;0.40;99.90
47022;DHT22;32779;52.264;6.154;2022-12-04T00:14:06;0.40;99.90
47022;DHT22;32779;52.264;6.154;2022-12-04T00:16:31;0.30;99.90
47022;DHT22;32779;52.264;6.154;2022-12-04T00:18:57;0.30;99.90
47022;DHT22;32779;52.264;6.154;2022-12-04T00:21:24;0.30;99.90
47022;DHT22;32779;52.264;6.154;2022-12-04T00:23:50;0.30;99.90
47022;DHT22;32779;52.264;6.154;2022-12-04T00:26:18;0.30;99.90
47022;DHT22;32779;52.264;6.154;2022-12-04T00:28:45;0.30;99.90
47022;DHT22;32779;52.264;6.154;2022-12-04T00:31:14;0.30;99.90
47022;DHT22;32779;52.264;6.154;2022-12-04T00:33:40;0.30;99.90
47022;DHT22;32779;52.264;6.154;2022-12-04T00:36:09;0.30;99.90
47022;DHT22;32779;52.264;6.154;2022-12-04T00:38:36;0.30;99.90
47022;DHT22;32779;52.264;6.154;2022-12-04T00:41:02;0.30;99.90
47022;DHT22;32779;52.264;6.154;2022-12-04T00:43:28;0.30;99.90
47022;DHT22;32779;52.264;6.154;2022-12-04T00:45:54;0.30;99.90
47022;DHT22;32779;52.264;6.154;2022-12-04T00:48:20;0.30;99.90
47022;DHT22;32779;52.264;6.154;2022-12-04T00:50:45;0.30;99.90
47022;DHT22;32779;52.264;6.154;2022-12-04T00:53:12;0.40;99.90
47022;DHT22;32779;52.264;6.154;2022-12-04T00:55:41;0.40;99.90
47022;DHT22;32779;52.264;6.154;2022-12-04T00:58:07;0.40;99.90
47022;DHT22;32779;52.264;6.154;2022-12-04T01:00:34;0.40;99.90
47022;DHT22;32779;52.264;6.154;2022-12-04T01:03:00;0.30;99.90
47022;DHT22;32779;52.264;6.154;2022-12-04T01:05:26;0.30;99.90
47022;DHT22;32779;52.264;6.154;2022-12-04T01:07:53;0.30;99.90
47022;DHT22;32779;52.264;6.154;2022-12-04T01:10:19;0.30;99.90
47022;DHT22;32779;52.264;6.154;2022-12-04T01:12:44;0.30;99.90
47022;DHT22;32779;52.264;6.154;2022-12-04T01:15:10;0.30;99.90
47022;DHT22;32779;52.264;6.154;2022-12-04T01:17:36;0.30;99.90
47022;DHT22;32779;52.264;6.154;2022-12-04T01:20:03;0.30;99.90
47022;DHT22;32779;52.264;6.154;2022-12-04T01:22:28;0.30;99.90
47022;DHT22;32779;52.264;6.154;2022-12-04T01:24:55;0.30;99.90
47022;DHT22;32779;52.264;6.154;2022-12-04T01:27:21;0.30;99.90
47022;DHT22;32779;52.264;6.154;2022-12-04T01:29:46;0.30;99.90
47022;DHT22;32779;52.264;6.154;2022-12-04T01:32:12;0.40;99.90
47022;DHT22;32779;52.264;6.154;2022-12-04T01:34:37;0.40;99.90
47022;DHT22;32779;52.264;6.154;2022-12-04T01:37:03;0.30;99.90
47022;DHT22;32779;52.264;6.154;2022-12-04T01:39:29;0.30;99.90
47022;DHT22;32779;52.264;6.154;2022-12-04T01:41:54;0.30;99.90
47022;DHT22;32779;52.264;6.154;2022-12-04T01:44:23;0.30;99.90
47022;DHT22;32779;52.264;6.154;2022-12-04T01:46:53;0.30;99.90
47022;DHT22;32779;52.264;6.154;2022-12-04T01:52:08;0.30;99.90
47022;DHT22;32779;52.264;6.154;2022-12-04T01:54:40;0.30;99.90
47022;DHT22;32779;52.264;6.154;2022-12-04T01:57:11;0.30;99.90
47022;DHT22;32779;52.264;6.154;2022-12-04T01:59:53;0.30;99.90
47022;DHT22;32779;52.264;6.154;2022-12-04T02:02:32;0.30;99.90
47022;DHT22;32779;52.264;6.154;2022-12-04T02:05:00;0.30;99.90
47022;DHT22;32779;52.264;6.154;2022-12-04T02:07:26;0.30;99.90
47022;DHT22;32779;52.264;6.154;2022-12-04T02:09:52;0.30;99.90
47022;DHT22;32779;52.264;6.154;2022-12-04T02:23:06;0.30;99.90
47022;DHT22;32779;52.264;6.154;2022-12-04T02:25:51;0.20;99.90
47022;DHT22;32779;52.264;6.154;2022-12-04T02:28:34;0.30;99.90
47022;DHT22;32779;52.264;6.154;2022-12-04T02:31:04;0.30;99.90
47022;DHT22;32779;52.264;6.154;2022-12-04T02:33:58;0.30;99.90
47022;DHT22;32779;52.264;6.154;2022-12-04T02:36:29;0.20;99.90
47022;DHT22;32779;52.264;6.154;2022-12-04T02:39:06;0.30;99.90
47022;DHT22;32779;52.264;6.154;2022-12-04T02:42:20;0.30;99.90
47022;DHT22;32779;52.264;6.154;2022-12-04T02:44:33;0.30;99.90
47022;DHT22;32779;52.264;6.154;2022-12-04T02:47:04;0.30;99.90
47022;DHT22;32779;52.264;6.154;2022-12-04T02:49:36;0.30;99.90
47022;DHT22;32779;52.264;6.154;2022-12-04T02:52:02;0.30;99.90
47022;DHT22;32779;52.264;6.154;2022-12-04T02:54:36;0.30;99.90
47022;DHT22;32779;52.264;6.154;2022-12-04T02:57:06;0.30;99.90
47022;DHT22;32779;52.264;6.154;2022-12-04T02:59:39;0.30;99.90
47022;DHT22;32779;52.264;6.154;2022-12-04T03:02:11;0.20;99.90
47022;DHT22;32779;52.264;6.154;2022-12-04T03:04:38;0.20;99.90
47022;DHT22;32779;52.264;6.154;2022-12-04T03:07:19;0.20;99.90
47022;DHT22;32779;52.264;6.154;2022-12-04T03:09:57;0.30;99.90
47022;DHT22;32779;52.264;6.154;2022-12-04T03:12:34;0.20;99.90
47022;DHT22;32779;52.264;6.154;2022-12-04T03:15:06;0.20;99.90
47022;DHT22;32779;52.264;6.154;2022-12-04T03:17:48;0.20;99.90
47022;DHT22;32779;52.264;6.154;2022-12-04T03:20:15;0.20;99.90
47022;DHT22;32779;52.264;6.154;2022-12-04T03:22:43;0.20;99.90
47022;DHT22;32779;52.264;6.154;2022-12-04T03:25:10;0.20;99.90
47022;DHT22;32779;52.264;6.154;2022-12-04T03:30:13;0.20;99.90
47022;DHT22;32779;52.264;6.154;2022-12-04T03:33:11;0.20;99.90
47022;DHT22;32779;52.264;6.154;2022-12-04T03:35:43;0.20;99.90
47022;DHT22;32779;52.264;6.154;2022-12-04T03:38:21;0.20;99.90
47022;DHT22;32779;52.264;6.154;2022-12-04T03:40:53;0.20;99.90
47022;DHT22;32779;52.264;6.154;2022-12-04T03:43:37;0.20;99.90
47022;DHT22;32779;52.264;6.154;2022-12-04T03:46:08;0.20;99.90
47022;DHT22;32779;52.264;6.154;2022-12-04T03:48:45;0.20;99.90
47022;DHT22;32779;52.264;6.154;2022-12-04T03:51:35;0.20;99.90
47022;DHT22;32779;52.264;6.154;2022-12-04T03:54:18;0.20;99.90
47022;DHT22;32779;52.264;6.154;2022-12-04T03:56:53;0.20;99.90
47022;DHT22;32779;52.264;6.154;2022-12-04T03:59:24;0.10;99.90
47022;DHT22;32779;52.264;6.154;2022-12-04T04:01:52;0.20;99.90
47022;DHT22;32779;52.264;6.154;2022-12-04T04:04:30;0.20;99.90
47022;DHT22;32779;52.264;6.154;2022-12-04T04:07:02;0.20;99.90
47022;DHT22;32779;52.264;6.154;2022-12-04T04:09:34;0.20;99.90
47022;DHT22;32779;52.264;6.154;2022-12-04T04:12:07;0.20;99.90
47022;DHT22;32779;52.264;6.154;2022-12-04T04:15:07;0.20;99.90
47022;DHT22;32779;52.264;6.154;2022-12-04T04:17:53;0.20;99.90
47022;DHT22;32779;52.264;6.154;2022-12-04T04:20:43;0.20;99.90
47022;DHT22;32779;52.264;6.154;2022-12-04T04:23:35;0.20;99.90
47022;DHT22;32779;52.264;6.154;2022-12-04T04:26:21;0.20;99.90
47022;DHT22;32779;52.264;6.154;2022-12-04T04:28:48;0.20;99.90
47022;DHT22;32779;52.264;6.154;2022-12-04T04:31:29;0.20;99.90
47022;DHT22;32779;52.264;6.154;2022-12-04T04:36:47;0.30;99.90
47022;DHT22;32779;52.264;6.154;2022-12-04T04:42:21;0.30;99.90
47022;DHT22;32779;52.264;6.154;2022-12-04T04:45:12;0.30;99.90
47022;DHT22;32779;52.264;6.154;2022-12-04T04:48:08;0.30;99.90
47022;DHT22;32779;52.264;6.154;2022-12-04T04:50:36;0.30;99.90
47022;DHT22;32779;52.264;6.154;2022-12-04T04:53:09;0.30;99.90
47022;DHT22;32779;52.264;6.154;2022-12-04T04:55:37;0.30;99.90
47022;DHT22;32779;52.264;6.154;2022-12-04T04:58:13;0.30;99.90
47022;DHT22;32779;52.264;6.154;2022-12-04T05:00:39;0.30;99.90
47022;DHT22;32779;52.264;6.154;2022-12-04T05:03:05;0.30;99.90
47022;DHT22;32779;52.264;6.154;2022-12-04T05:05:31;0.30;99.90
47022;DHT22;32779;52.264;6.154;2022-12-04T05:07:57;0.30;99.90
47022;DHT22;32779;52.264;6.154;2022-12-04T05:10:22;0.30;99.90
47022;DHT22;32779;52.264;6.154;2022-12-04T05:12:48;0.30;99.90
47022;DHT22;32779;52.264;6.154;2022-12-04T05:15:14;0.30;99.90
47022;DHT22;32779;52.264;6.154;2022-12-04T05:17:39;0.40;99.90
47022;DHT22;32779;52.264;6.154;2022-12-04T05:20:05;0.40;99.90
47022;DHT22;32779;52.264;6.154;2022-12-04T05:22:31;0.30;99.90
47022;DHT22;32779;52.264;6.154;2022-12-04T05:24:58;0.30;99.90
47022;DHT22;32779;52.264;6.154;2022-12-04T05:27:24;0.40;99.90
47022;DHT22;32779;52.264;6.154;2022-12-04T05:29:54;0.30;99.90
47022;DHT22;32779;52.264;6.154;2022-12-04T05:32:21;0.30;99.90
47022;DHT22;32779;52.264;6.154;2022-12-04T05:34:48;0.30;99.90
47022;DHT22;32779;52.264;6.154;2022-12-04T05:37:13;0.40;99.90
47022;DHT22;32779;52.264;6.154;2022-12-04T05:39:39;0.40;99.90
47022;DHT22;32779;52.264;6.154;2022-12-04T05:42:04;0.40;99.90
47022;DHT22;32779;52.264;6.154;2022-12-04T05:44:30;0.40;99.90
47022;DHT22;32779;52.264;6.154;2022-12-04T05:46:56;0.40;99.90
47022;DHT22;32779;52.264;6.154;2022-12-04T05:49:21;0.40;99.90
47022;DHT22;32779;52.264;6.154;2022-12-04T05:51:49;0.40;99.90
47022;DHT22;32779;52.264;6.154;2022-12-04T05:54:14;0.50;99.90
47022;DHT22;32779;52.264;6.154;2022-12-04T05:56:40;0.40;99.90
47022;DHT22;32779;52.264;6.154;2022-12-04T05:59:06;0.40;99.90
47022;DHT22;32779;52.264;6.154;2022-12-04T06:01:32;0.40;99.90
47022;DHT22;32779;52.264;6.154;2022-12-04T06:03:57;0.40;99.90
47022;DHT22;32779;52.264;6.154;2022-12-04T06:06:24;0.50;99.90
47022;DHT22;32779;52.264;6.154;2022-12-04T06:08:53;0.50;99.90
47022;DHT22;32779;52.264;6.154;2022-12-04T06:11:21;0.50;99.90
47022;DHT22;32779;52.264;6.154;2022-12-04T06:13:48;0.50;99.90
47022;DHT22;32779;52.264;6.154;2022-12-04T06:16:14;0.50;99.90
47022;DHT22;32779;52.264;6.154;2022-12-04T06:18:41;0.50;99.90
47022;DHT22;32779;52.264;6.154;2022-12-04T06:21:07;0.50;99.90
47022;DHT22;32779;52.264;6.154;2022-12-04T06:23:33;0.40;99.90
47022;DHT22;32779;52.264;6.154;2022-12-04T06:26:03;0.40;99.90
47022;DHT22;32779;52.264;6.154;2022-12-04T06:28:30;0.40;99.90
47022;DHT22;32779;52.264;6.154;2022-12-04T06:31:03;0.40;99.90
47022;DHT22;32779;52.264;6.154;2022-12-04T06:33:29;0.30;99.90
47022;DHT22;32779;52.264;6.154;2022-12-04T06:36:07;0.30;99.90
47022;DHT22;32779;52.264;6.154;2022-12-04T06:38:34;0.30;99.90
47022;DHT22;32779;52.264;6.154;2022-12-04T06:41:06;0.30;99.90
47022;DHT22;32779;52.264;6.154;2022-12-04T06:43:32;0.30;99.90
47022;DHT22;32779;52.264;6.154;2022-12-04T06:46:00;0.40;99.90
47022;DHT22;32779;52.264;6.154;2022-12-04T06:48:26;0.40;99.90
47022;DHT22;32779;52.264;6.154;2022-12-04T06:51:01;0.40;99.90
47022;DHT22;32779;52.264;6.154;2022-12-04T06:53:27;0.30;99.90
47022;DHT22;32779;52.264;6.154;2022-12-04T06:55:57;0.30;99.90
47022;DHT22;32779;52.264;6.154;2022-12-04T06:58:23;0.30;99.90
47022;DHT22;32779;52.264;6.154;2022-12-04T07:00:49;0.30;99.90
47022;DHT22;32779;52.264;6.154;2022-12-04T07:03:15;0.30;99.90
47022;DHT22;32779;52.264;6.154;2022-12-04T07:05:41;0.20;99.90
47022;DHT22;32779;52.264;6.154;2022-12-04T07:08:06;0.30;99.90
47022;DHT22;32779;52.264;6.154;2022-12-04T07:10:34;0.30;99.90
47022;DHT22;32779;52.264;6.154;2022-12-04T07:13:01;0.30;99.90
47022;DHT22;32779;52.264;6.154;2022-12-04T07:15:26;0.30;99.90
47022;DHT22;32779;52.264;6.154;2022-12-04T07:17:52;0.30;99.90
47022;DHT22;32779;52.264;6.154;2022-12-04T07:20:17;0.30;99.90
47022;DHT22;32779;52.264;6.154;2022-12-04T07:22:43;0.30;99.90
47022;DHT22;32779;52.264;6.154;2022-12-04T07:25:09;0.30;99.90
47022;DHT22;32779;52.264;6.154;2022-12-04T07:27:34;0.30;99.90
47022;DHT22;32779;52.264;6.154;2022-12-04T07:30:00;0.30;99.90
47022;DHT22;32779;52.264;6.154;2022-12-04T07:32:26;0.30;99.90
47022;DHT22;32779;52.264;6.154;2022-12-04T07:34:51;0.30;99.90
47022;DHT22;32779;52.264;6.154;2022-12-04T07:37:17;0.30;99.90
47022;DHT22;32779;52.264;6.154;2022-12-04T07:39:42;0.30;99.90
47022;DHT22;32779;52.264;6.154;2022-12-04T07:42:08;0.40;99.90
47022;DHT22;32779;52.264;6.154;2022-12-04T07:44:33;0.40;99.90
47022;DHT22;32779;52.264;6.154;2022-12-04T07:46:59;0.40;99.90
47022;DHT22;32779;52.264;6.154;2022-12-04T07:49:26;0.40;99.90
47022;DHT22;32779;52.264;6.154;2022-12-04T07:51:51;0.40;99.90
47022;DHT22;32779;52.264;6.154;2022-12-04T07:54:17;0.40;99.90
47022;DHT22;32779;52.264;6.154;2022-12-04T07:56:42;0.50;99.90
47022;DHT22;32779;52.264;6.154;2022-12-04T07:59:08;0.40;99.90
47022;DHT22;32779;52.264;6.154;2022-12-04T08:01:33;0.40;99.90
47022;DHT22;32779;52.264;6.154;2022-12-04T08:04:00;0.40;99.90
47022;DHT22;32779;52.264;6.154;2022-12-04T08:06:28;0.40;99.90
47022;DHT22;32779;52.264;6.154;2022-12-04T08:08:54;0.40;99.90
47022;DHT22;32779;52.264;6.154;2022-12-04T08:11:23;0.40;99.90
47022;DHT22;32779;52.264;6.154;2022-12-04T08:13:53;0.50;99.90
47022;DHT22;32779;52.264;6.154;2022-12-04T08:16:20;0.50;99.90
47022;DHT22;32779;52.264;6.154;2022-12-04T08:18:46;0.50;99.90
47022;DHT22;32779;52.264;6.154;2022-12-04T08:21:18;0.50;99.90
47022;DHT22;32779;52.264;6.154;2022-12-04T08:23:49;0.50;99.90
47022;DHT22;32779;52.264;6.154;2022-12-04T08:26:15;0.50;99.90
47022;DHT22;32779;52.264;6.154;2022-12-04T08:28:41;0.60;99.90
47022;DHT22;32779;52.264;6.154;2022-12-04T08:31:27;0.60;99.90
47022;DHT22;32779;52.264;6.154;2022-12-04T08:33:55;0.50;99.90
47022;DHT22;32779;52.264;6.154;2022-12-04T08:36:22;0.50;99.90
47022;DHT22;32779;52.264;6.154;2022-12-04T08:38:48;0.60;99.90
47022;DHT22;32779;52.264;6.154;2022-12-04T08:41:18;0.60;99.90
47022;DHT22;32779;52.264;6.154;2022-12-04T08:43:44;0.60;99.90
47022;DHT22;32779;52.264;6.154;2022-12-04T08:46:12;0.60;99.90
47022;DHT22;32779;52.264;6.154;2022-12-04T08:48:39;0.60;99.90
47022;DHT22;32779;52.264;6.154;2022-12-04T08:51:05;0.60;99.90
47022;DHT22;32779;52.264;6.154;2022-12-04T08:53:33;0.60;99.90
47022;DHT22;32779;52.264;6.154;2022-12-04T08:56:00;0.60;99.90
47022;DHT22;32779;52.264;6.154;2022-12-04T08:58:26;0.60;99.90
47022;DHT22;32779;52.264;6.154;2022-12-04T09:00:51;0.60;99.90
47022;DHT22;32779;52.264;6.154;2022-12-04T09:03:19;0.60;99.90
47022;DHT22;32779;52.264;6.154;2022-12-04T09:05:45;0.60;99.90
47022;DHT22;32779;52.264;6.154;2022-12-04T09:08:12;0.60;99.90
47022;DHT22;32779;52.264;6.154;2022-12-04T09:10:38;0.60;99.90
47022;DHT22;32779;52.264;6.154;2022-12-04T09:13:04;0.60;99.90
47022;DHT22;32779;52.264;6.154;2022-12-04T09:15:30;0.60;99.90
47022;DHT22;32779;52.264;6.154;2022-12-04T09:17:55;0.70;99.90
47022;DHT22;32779;52.264;6.154;2022-12-04T09:20:21;0.70;99.90
47022;DHT22;32779;52.264;6.154;2022-12-04T09:22:47;0.70;99.90
47022;DHT22;32779;52.264;6.154;2022-12-04T09:25:12;0.70;99.90
47022;DHT22;32779;52.264;6.154;2022-12-04T09:27:38;0.70;99.90
47022;DHT22;32779;52.264;6.154;2022-12-04T09:30:07;0.70;99.90
47022;DHT22;32779;52.264;6.154;2022-12-04T09:32:33;0.70;99.90
47022;DHT22;32779;52.264;6.154;2022-12-04T09:34:59;0.70;99.90
47022;DHT22;32779;52.264;6.154;2022-12-04T09:37:24;0.70;99.90
47022;DHT22;32779;52.264;6.154;2022-12-04T09:39:50;0.70;99.90
47022;DHT22;32779;52.264;6.154;2022-12-04T09:45:11;0.70;99.90
47022;DHT22;32779;52.264;6.154;2022-12-04T09:47:45;0.70;99.90
47022;DHT22;32779;52.264;6.154;2022-12-04T09:53:10;0.70;99.90
47022;DHT22;32779;52.264;6.154;2022-12-04T09:58:27;0.70;99.90
47022;DHT22;32779;52.264;6.154;2022-12-04T10:00:57;0.80;99.90
47022;DHT22;32779;52.264;6.154;2022-12-04T10:03:26;0.80;99.90
47022;DHT22;32779;52.264;6.154;2022-12-04T10:06:03;0.90;99.90
47022;DHT22;32779;52.264;6.154;2022-12-04T10:08:40;0.90;99.90
47022;DHT22;32779;52.264;6.154;2022-12-04T10:11:29;0.90;99.90
47022;DHT22;32779;52.264;6.154;2022-12-04T10:19:52;0.90;99.90
47022;DHT22;32779;52.264;6.154;2022-12-04T10:24:55;1.00;99.90
47022;DHT22;32779;52.264;6.154;2022-12-04T10:27:28;1.00;99.90
47022;DHT22;32779;52.264;6.154;2022-12-04T10:30:06;1.00;99.90
47022;DHT22;32779;52.264;6.154;2022-12-04T10:32:35;1.00;99.90
47022;DHT22;32779;52.264;6.154;2022-12-04T10:35:24;1.00;99.90
47022;DHT22;32779;52.264;6.154;2022-12-04T10:37:57;1.10;99.90
47022;DHT22;32779;52.264;6.154;2022-12-04T10:40:39;1.10;99.90
47022;DHT22;32779;52.264;6.154;2022-12-04T10:43:39;1.10;99.90
47022;DHT22;32779;52.264;6.154;2022-12-04T10:46:14;1.10;99.90
47022;DHT22;32779;52.264;6.154;2022-12-04T10:48:40;1.10;99.90
47022;DHT22;32779;52.264;6.154;2022-12-04T10:51:19;1.10;99.90
47022;DHT22;32779;52.264;6.154;2022-12-04T10:53:46;1.10;99.90
47022;DHT22;32779;52.264;6.154;2022-12-04T10:56:22;1.10;99.90
47022;DHT22;32779;52.264;6.154;2022-12-04T10:58:56;1.10;99.90
47022;DHT22;32779;52.264;6.154;2022-12-04T11:01:22;1.10;99.90
47022;DHT22;32779;52.264;6.154;2022-12-04T11:03:54;1.10;99.90
47022;DHT22;32779;52.264;6.154;2022-12-04T11:06:23;1.10;99.90
47022;DHT22;32779;52.264;6.154;2022-12-04T11:08:50;1.10;99.90
47022;DHT22;32779;52.264;6.154;2022-12-04T11:11:27;1.10;99.90
47022;DHT22;32779;52.264;6.154;2022-12-04T11:16:34;1.10;99.90
47022;DHT22;32779;52.264;6.154;2022-12-04T11:19:00;1.20;99.90
47022;DHT22;32779;52.264;6.154;2022-12-04T11:21:30;1.20;99.90
47022;DHT22;32779;52.264;6.154;2022-12-04T11:23:56;1.20;99.90
47022;DHT22;32779;52.264;6.154;2022-12-04T11:26:34;1.30;99.90
47022;DHT22;32779;52.264;6.154;2022-12-04T11:29:01;1.30;99.90
47022;DHT22;32779;52.264;6.154;2022-12-04T11:31:29;1.30;99.90
47022;DHT22;32779;52.264;6.154;2022-12-04T11:33:56;1.30;99.90
47022;DHT22;32779;52.264;6.154;2022-12-04T11:36:43;1.30;99.90
47022;DHT22;32779;52.264;6.154;2022-12-04T11:39:22;1.40;99.90
47022;DHT22;32779;52.264;6.154;2022-12-04T11:42:12;1.40;99.90
47022;DHT22;32779;52.264;6.154;2022-12-04T11:44:50;1.40;99.90
47022;DHT22;32779;52.264;6.154;2022-12-04T11:47:18;1.40;99.90
47022;DHT22;32779;52.264;6.154;2022-12-04T11:49:55;1.50;99.90
47022;DHT22;32779;52.264;6.154;2022-12-04T11:52:34;1.50;99.90
47022;DHT22;32779;52.264;6.154;2022-12-04T11:55:26;1.50;99.90
47022;DHT22;32779;52.264;6.154;2022-12-04T11:58:30;1.50;99.90
47022;DHT22;32779;52.264;6.154;2022-12-04T12:01:14;1.50;99.90
47022;DHT22;32779;52.264;6.154;2022-12-04T12:09:32;1.50;99.90
47022;DHT22;32779;52.264;6.154;2022-12-04T12:12:08;1.50;99.90
47022;DHT22;32779;52.264;6.154;2022-12-04T12:17:31;1.50;99.90
47022;DHT22;32779;52.264;6.154;2022-12-04T12:20:31;1.50;99.90
47022;DHT22;32779;52.264;6.154;2022-12-04T12:34:34;1.50;99.90
47022;DHT22;32779;52.264;6.154;2022-12-04T12:39:49;1.40;99.90
47022;DHT22;32779;52.264;6.154;2022-12-04T12:42:33;1.40;99.90
47022;DHT22;32779;52.264;6.154;2022-12-04T12:45:19;1.40;99.90
47022;DHT22;32779;52.264;6.154;2022-12-04T12:47:49;1.40;99.90
47022;DHT22;32779;52.264;6.154;2022-12-04T12:50:39;1.50;99.90
47022;DHT22;32779;52.264;6.154;2022-12-04T12:53:22;1.50;99.90
47022;DHT22;32779;52.264;6.154;2022-12-04T12:55:53;1.40;99.90
47022;DHT22;32779;52.264;6.154;2022-12-04T12:58:33;1.40;99.90
47022;DHT22;32779;52.264;6.154;2022-12-04T13:01:18;1.40;99.90
47022;DHT22;32779;52.264;6.154;2022-12-04T13:04:08;1.40;99.90
47022;DHT22;32779;52.264;6.154;2022-12-04T13:06:43;1.50;99.90
47022;DHT22;32779;52.264;6.154;2022-12-04T13:09:28;1.40;99.90
47022;DHT22;32779;52.264;6.154;2022-12-04T13:12:12;1.50;99.90
47022;DHT22;32779;52.264;6.154;2022-12-04T13:14:39;1.50;99.90
47022;DHT22;32779;52.264;6.154;2022-12-04T13:17:26;1.50;99.90
47022;DHT22;32779;52.264;6.154;2022-12-04T13:19:57;1.50;99.90
47022;DHT22;32779;52.264;6.154;2022-12-04T13:22:33;1.50;99.90
47022;DHT22;32779;52.264;6.154;2022-12-04T13:40:03;1.50;99.90
47022;DHT22;32779;52.264;6.154;2022-12-04T13:42:34;1.50;99.90
47022;DHT22;32779;52.264;6.154;2022-12-04T13:45:10;1.50;99.90
47022;DHT22;32779;52.264;6.154;2022-12-04T13:47:37;1.50;99.90
47022;DHT22;32779;52.264;6.154;2022-12-04T13:52:44;1.50;99.90
47022;DHT22;32779;52.264;6.154;2022-12-04T13:55:41;1.50;99.90
47022;DHT22;32779;52.264;6.154;2022-12-04T14:00:37;1.50;99.90
47022;DHT22;32779;52.264;6.154;2022-12-04T14:03:30;1.50;99.90
47022;DHT22;32779;52.264;6.154;2022-12-04T14:05:57;1.50;99.90
47022;DHT22;32779;52.264;6.154;2022-12-04T14:08:38;1.50;99.90
47022;DHT22;32779;52.264;6.154;2022-12-04T14:11:17;1.50;99.90
47022;DHT22;32779;52.264;6.154;2022-12-04T14:13:47;1.60;99.90
47022;DHT22;32779;52.264;6.154;2022-12-04T14:16:41;1.50;99.90
47022;DHT22;32779;52.264;6.154;2022-12-04T14:19:07;1.60;99.90
47022;DHT22;32779;52.264;6.154;2022-12-04T14:21:48;1.60;99.90
47022;DHT22;32779;52.264;6.154;2022-12-04T14:26:50;1.60;99.90
47022;DHT22;32779;52.264;6.154;2022-12-04T14:29:27;1.70;99.90
47022;DHT22;32779;52.264;6.154;2022-12-04T14:31:57;1.70;99.90
47022;DHT22;32779;52.264;6.154;2022-12-04T14:34:26;1.70;99.90
47022;DHT22;32779;52.264;6.154;2022-12-04T14:36:55;1.70;99.90
47022;DHT22;32779;52.264;6.154;2022-12-04T14:39:39;1.70;99.90
47022;DHT22;32779;52.264;6.154;2022-12-04T14:42:22;1.80;99.90
47022;DHT22;32779;52.264;6.154;2022-12-04T14:44:58;1.80;99.90
47022;DHT22;32779;52.264;6.154;2022-12-04T14:53:11;1.90;99.90
47022;DHT22;32779;52.264;6.154;2022-12-04T14:58:18;1.90;99.90
47022;DHT22;32779;52.264;6.154;2022-12-04T15:01:04;1.90;99.90
47022;DHT22;32779;52.264;6.154;2022-12-04T15:03:34;1.90;99.90
47022;DHT22;32779;52.264;6.154;2022-12-04T15:09:02;2.00;99.90
47022;DHT22;32779;52.264;6.154;2022-12-04T15:11:50;2.00;99.90
47022;DHT22;32779;52.264;6.154;2022-12-04T15:14:43;2.00;99.90
47022;DHT22;32779;52.264;6.154;2022-12-04T15:17:10;2.00;99.90
47022;DHT22;32779;52.264;6.154;2022-12-04T15:19:36;2.00;99.90
47022;DHT22;32779;52.264;6.154;2022-12-04T15:22:04;2.00;99.90
47022;DHT22;32779;52.264;6.154;2022-12-04T15:24:32;2.00;99.90
47022;DHT22;32779;52.264;6.154;2022-12-04T15:26:57;2.00;99.90
47022;DHT22;32779;52.264;6.154;2022-12-04T15:29:29;2.00;99.90
47022;DHT22;32779;52.264;6.154;2022-12-04T15:31:59;2.00;99.90
47022;DHT22;32779;52.264;6.154;2022-12-04T15:34:36;2.00;99.90
47022;DHT22;32779;52.264;6.154;2022-12-04T15:37:05;2.10;99.90
47022;DHT22;32779;52.264;6.154;2022-12-04T15:39:33;2.10;99.90
47022;DHT22;32779;52.264;6.154;2022-12-04T15:42:14;2.10;99.90
47022;DHT22;32779;52.264;6.154;2022-12-04T15:44:52;2.10;99.90
47022;DHT22;32779;52.264;6.154;2022-12-04T15:47:23;2.10;99.90
47022;DHT22;32779;52.264;6.154;2022-12-04T15:49:49;2.10;99.90
47022;DHT22;32779;52.264;6.154;2022-12-04T15:52:17;2.10;99.90
47022;DHT22;32779;52.264;6.154;2022-12-04T15:57:28;2.10;99.90
47022;DHT22;32779;52.264;6.154;2022-12-04T15:59:55;2.10;99.90
47022;DHT22;32779;52.264;6.154;2022-12-04T16:02:39;2.20;99.90
47022;DHT22;32779;52.264;6.154;2022-12-04T16:07:53;2.20;99.90
47022;DHT22;32779;52.264;6.154;2022-12-04T16:10:27;2.10;99.90
47022;DHT22;32779;52.264;6.154;2022-12-04T16:13:24;2.20;99.90
47022;DHT22;32779;52.264;6.154;2022-12-04T16:15:50;2.20;99.90
47022;DHT22;32779;52.264;6.154;2022-12-04T16:18:15;2.20;99.90
47022;DHT22;32779;52.264;6.154;2022-12-04T16:20:41;2.20;99.90
47022;DHT22;32779;52.264;6.154;2022-12-04T16:23:08;2.20;99.90
47022;DHT22;32779;52.264;6.154;2022-12-04T16:25:33;2.20;99.90
47022;DHT22;32779;52.264;6.154;2022-12-04T16:28:00;2.20;99.90
47022;DHT22;32779;52.264;6.154;2022-12-04T16:30:36;2.20;99.90
47022;DHT22;32779;52.264;6.154;2022-12-04T16:33:02;2.20;99.90
47022;DHT22;32779;52.264;6.154;2022-12-04T16:35:28;2.20;99.90
47022;DHT22;32779;52.264;6.154;2022-12-04T16:37:55;2.30;99.90
47022;DHT22;32779;52.264;6.154;2022-12-04T16:40:21;2.20;99.90
47022;DHT22;32779;52.264;6.154;2022-12-04T16:42:47;2.20;99.90
47022;DHT22;32779;52.264;6.154;2022-12-04T16:45:27;2.20;99.90
47022;DHT22;32779;52.264;6.154;2022-12-04T16:47:52;2.20;99.90
47022;DHT22;32779;52.264;6.154;2022-12-04T16:50:18;2.20;99.90
47022;DHT22;32779;52.264;6.154;2022-12-04T16:52:44;2.20;99.90
47022;DHT22;32779;52.264;6.154;2022-12-04T16:55:31;2.20;99.90
47022;DHT22;32779;52.264;6.154;2022-12-04T16:57:57;2.20;99.90
47022;DHT22;32779;52.264;6.154;2022-12-04T17:00:23;2.20;99.90
47022;DHT22;32779;52.264;6.154;2022-12-04T17:02:48;2.20;99.90
47022;DHT22;32779;52.264;6.154;2022-12-04T17:05:23;2.20;99.90
47022;DHT22;32779;52.264;6.154;2022-12-04T17:07:49;2.20;99.90
47022;DHT22;32779;52.264;6.154;2022-12-04T17:10:15;2.20;99.90
47022;DHT22;32779;52.264;6.154;2022-12-04T17:12:41;2.20;99.90
47022;DHT22;32779;52.264;6.154;2022-12-04T17:15:09;2.20;99.90
47022;DHT22;32779;52.264;6.154;2022-12-04T17:17:35;2.20;99.90
47022;DHT22;32779;52.264;6.154;2022-12-04T17:20:01;2.10;99.90
47022;DHT22;32779;52.264;6.154;2022-12-04T17:22:27;2.10;99.90
47022;DHT22;32779;52.264;6.154;2022-12-04T17:24:54;2.20;99.90
47022;DHT22;32779;52.264;6.154;2022-12-04T17:27:20;2.20;99.90
47022;DHT22;32779;52.264;6.154;2022-12-04T17:29:46;2.20;99.90
47022;DHT22;32779;52.264;6.154;2022-12-04T17:32:12;2.10;99.90
47022;DHT22;32779;52.264;6.154;2022-12-04T17:34:37;2.20;99.90
47022;DHT22;32779;52.264;6.154;2022-12-04T17:37:03;2.20;99.90
47022;DHT22;32779;52.264;6.154;2022-12-04T17:39:28;2.10;99.90
47022;DHT22;32779;52.264;6.154;2022-12-04T17:41:54;2.20;99.90
47022;DHT22;32779;52.264;6.154;2022-12-04T17:44:20;2.10;99.90
47022;DHT22;32779;52.264;6.154;2022-12-04T17:46:45;2.10;99.90
47022;DHT22;32779;52.264;6.154;2022-12-04T17:49:11;2.20;99.90
47022;DHT22;32779;52.264;6.154;2022-12-04T17:51:37;2.20;99.90
47022;DHT22;32779;52.264;6.154;2022-12-04T17:54:04;2.10;99.90